Thunder radar more information blitzortung!


Radar de pluja more information rain snow radar


Visita la nostra xarxa de llocs de meteo:

Template documentation
and downloads

And another site



Wind From: 11-12-2017 11:00 Until: 14:59 warning for: Wind Level: Yellow info button

Pagina Historial Weather Underground text

Diari Resum May 11, 2017 Unitats:  Imperial    Mètric   Tant
« Previous Dia
SegĂźent Dia »
Diari Setmana Mensual Anual Personalitzada
  Maxima: Minima: Media:
Temperatura: 68.9 °F 54.1 °F 60.1 °F
Punt de rosada: 60.3 °F 49.6 °F 54.7 °F
Humitat: 88 % 69 % 83 %
Wind Speed: 6 mph 0 mph 2.5 mph
RĂ fegues de vent: 6 mph - -
Vent:- - SE
Pression baro: 29.6 in 29.5 in -
Precipitacions: 0.55 in    
Historical Graphs
 
 
Dades de taula per May 11, 2017
Temps Temperatura Punt de rosada Pression baro Vent Wind Speed RĂ fegues de vent Humitat Rainfall Rate (Hourly)
00:00 58.6 °F 52.9 °F 29.6 in NE 3 mph 5 mph 81 % 0 in
00:02 60.4 °F 54 °F 29.6 in NE 4.6 mph 4.6 mph 79 % 0 in
00:07 60.3 °F 54.1 °F 29.6 in ENE 6 mph 6 mph 80 % 0 in
00:10 58.6 °F 52.9 °F 29.6 in NE 3 mph 4 mph 81 % 0 in
00:20 58.5 °F 52.5 °F 29.6 in NE 3 mph 4 mph 81 % 0 in
00:30 58.5 °F 52.5 °F 29.6 in NE 3 mph 4 mph 81 % 0 in
00:40 58.6 °F 52.9 °F 29.6 in NE 2 mph 4 mph 81 % 0 in
00:50 58.6 °F 52.9 °F 29.6 in NE 2 mph 4 mph 81 % 0 in
01:00 58.6 °F 52.9 °F 29.6 in NE 1 mph 2 mph 81 % 0 in
01:10 58.6 °F 52.5 °F 29.6 in NE 1 mph 3 mph 80 % 0 in
01:20 58.6 °F 52.5 °F 29.6 in NE 3 mph 3 mph 80 % 0 in
01:30 58.5 °F 52.3 °F 29.6 in NE 2 mph 3 mph 80 % 0 in
01:40 58.6 °F 52.5 °F 29.5 in NE 2 mph 3 mph 80 % 0 in
01:50 58.6 °F 52.9 °F 29.5 in ENE 2 mph 5 mph 81 % 0 in
02:00 58.5 °F 52.5 °F 29.5 in East 3 mph 4 mph 81 % 0 in
02:10 58.6 °F 52.9 °F 29.5 in East 2 mph 6 mph 81 % 0 in
02:20 58.5 °F 52.5 °F 29.5 in East 2 mph 6 mph 81 % 0 in
02:30 58.5 °F 52.5 °F 29.5 in East 2 mph 3 mph 81 % 0 in
02:40 58.5 °F 52.5 °F 29.5 in East 2 mph 6 mph 81 % 0 in
02:50 58.5 °F 52.5 °F 29.5 in East 3 mph 6 mph 81 % 0 in
03:00 58.5 °F 52.5 °F 29.5 in ENE 1 mph 4 mph 81 % 0 in
03:10 58.3 °F 52.5 °F 29.5 in ENE 3 mph 4 mph 81 % 0 in
03:20 58.3 °F 53.1 °F 29.5 in NE 2 mph 4 mph 83 % 0 in
03:30 57.9 °F 52.9 °F 29.5 in ENE 1 mph 3 mph 83 % 0 in
03:40 57.9 °F 53.1 °F 29.6 in East 1 mph 3 mph 84 % 0 in
03:50 57.7 °F 52.9 °F 29.5 in ENE 3 mph 3 mph 84 % 0 in
04:00 57.9 °F 53.4 °F 29.5 in NE 3 mph 3 mph 85 % 0 in
04:10 58.1 °F 54 °F 29.5 in NNE 1 mph 3 mph 86 % 0 in
04:20 57.9 °F 53.8 °F 29.5 in NE 2 mph 3 mph 86 % 0 in
04:30 58.1 °F 54 °F 29.5 in Calm   2 mph 86 % 0 in
04:40 57.9 °F 53.8 °F 29.6 in Calm   2 mph 86 % 0.08 in
09:47 57.7 °F 54 °F 29.6 in Calm   2.4 mph 87 % 0.16 in
09:52 57.7 °F 54.1 °F 29.6 in Calm     88 % 0.21 in
09:57 57.6 °F 54 °F 29.5 in ENE 3.5 mph 3.5 mph 88 % 0.21 in
10:02 57.6 °F 54 °F 29.5 in ENE 3.5 mph 3.5 mph 88 % 0.21 in
10:03 57.6 °F 54 °F 29.5 in ENE 3.5 mph 3.5 mph 88 % 0.21 in
10:08 57.6 °F 54 °F 29.5 in ENE 3.5 mph 3.5 mph 88 % 0.21 in
10:13 57.6 °F 54 °F 29.5 in ENE 3.5 mph 3.5 mph 88 % 0.21 in
10:18 57.6 °F 54 °F 29.5 in ENE 3.5 mph 3.5 mph 88 % 0.21 in
10:23 57.6 °F 54 °F 29.5 in ENE 3.5 mph 3.5 mph 88 % 0.21 in
10:28 57.6 °F 54 °F 29.5 in ENE 3.5 mph 3.5 mph 88 % 0.21 in
10:33 57.6 °F 54 °F 29.5 in ENE 3.5 mph 3.5 mph 88 % 0.21 in
10:38 57.6 °F 54 °F 29.5 in ENE 3.5 mph 3.5 mph 88 % 0.21 in
10:43 57.6 °F 54 °F 29.5 in ENE 3.5 mph 3.5 mph 88 % 0.13 in
10:48 57.6 °F 54 °F 29.5 in ENE 3.5 mph 3.5 mph 88 % 0.05 in
10:53 57.6 °F 54 °F 29.5 in ENE 3.5 mph 3.5 mph 88 % 0 in
10:58 57.6 °F 54 °F 29.5 in ENE 3.5 mph 3.5 mph 88 % 0 in
11:03 57.6 °F 54 °F 29.5 in ENE 3.5 mph 3.5 mph 88 % 0 in
11:08 57.6 °F 54 °F 29.5 in ENE 3.5 mph 3.5 mph 88 % 0 in
11:13 57.6 °F 54 °F 29.5 in ENE 3.5 mph 3.5 mph 88 % 0 in
11:18 57.6 °F 54 °F 29.5 in ENE 3.5 mph 3.5 mph 88 % 0 in
11:23 57.6 °F 54 °F 29.5 in ENE 3.5 mph 3.5 mph 88 % 0 in
11:28 57.6 °F 54 °F 29.5 in ENE 3.5 mph 3.5 mph 88 % 0 in
11:33 57.6 °F 54 °F 29.5 in ENE 3.5 mph 3.5 mph 88 % 0 in
11:38 57.6 °F 54 °F 29.5 in ENE 3.5 mph 3.5 mph 88 % 0 in
11:43 57.6 °F 54 °F 29.5 in ENE 3.5 mph 3.5 mph 88 % 0 in
11:48 57.6 °F 54 °F 29.5 in ENE 3.5 mph 3.5 mph 88 % 0 in
11:53 57.6 °F 54 °F 29.5 in ENE 3.5 mph 3.5 mph 88 % 0 in
11:58 57.6 °F 54 °F 29.5 in ENE 3.5 mph 3.5 mph 88 % 0 in
12:03 57.6 °F 54 °F 29.5 in ENE 3.5 mph 3.5 mph 88 % 0 in
12:08 57.6 °F 54 °F 29.5 in ENE 3.5 mph 3.5 mph 88 % 0 in
12:13 57.6 °F 54 °F 29.5 in ENE 3.5 mph 3.5 mph 88 % 0 in
12:18 57.6 °F 54 °F 29.5 in ENE 3.5 mph 3.5 mph 88 % 0 in
12:23 57.6 °F 54 °F 29.5 in ENE 3.5 mph 3.5 mph 88 % 0 in
12:28 57.6 °F 54 °F 29.5 in ENE 3.5 mph 3.5 mph 88 % 0 in
12:29 57.6 °F 54 °F 29.5 in ENE 3.5 mph 3.5 mph 88 % 0 in
12:34 57.6 °F 54 °F 29.5 in ENE 3.5 mph 3.5 mph 88 % 0 in
12:39 57.6 °F 54 °F 29.5 in ENE 3.5 mph 3.5 mph 88 % 0 in
12:44 57.6 °F 54 °F 29.5 in ENE 3.5 mph 3.5 mph 88 % 0 in
12:49 57.6 °F 54 °F 29.5 in ENE 3.5 mph 3.5 mph 88 % 0 in
12:54 57.6 °F 54 °F 29.5 in ENE 3.5 mph 3.5 mph 88 % 0 in
12:59 57.6 °F 54 °F 29.5 in ENE 3.5 mph 3.5 mph 88 % 0 in
13:04 57.6 °F 54 °F 29.5 in ENE 3.5 mph 3.5 mph 88 % 0 in
13:09 57.6 °F 54 °F 29.5 in ENE 3.5 mph 3.5 mph 88 % 0 in
13:14 57.6 °F 54 °F 29.5 in ENE 3.5 mph 3.5 mph 88 % 0 in
13:19 57.6 °F 54 °F 29.5 in ENE 3.5 mph 3.5 mph 88 % 0 in
13:24 57.6 °F 54 °F 29.5 in ENE 3.5 mph 3.5 mph 88 % 0 in
13:29 57.6 °F 54 °F 29.5 in ENE 3.5 mph 3.5 mph 88 % 0 in
13:34 57.6 °F 54 °F 29.5 in ENE 3.5 mph 3.5 mph 88 % 0 in
13:39 57.6 °F 54 °F 29.5 in ENE 3.5 mph 3.5 mph 88 % 0 in
13:44 57.6 °F 54 °F 29.5 in ENE 3.5 mph 3.5 mph 88 % 0 in
13:49 57.6 °F 54 °F 29.5 in ENE 3.5 mph 3.5 mph 88 % 0 in
13:54 57.6 °F 54 °F 29.5 in ENE 3.5 mph 3.5 mph 88 % 0 in
13:59 57.6 °F 54 °F 29.5 in ENE 3.5 mph 3.5 mph 88 % 0 in
14:04 57.6 °F 54 °F 29.5 in ENE 3.5 mph 3.5 mph 88 % 0 in
14:09 57.6 °F 54 °F 29.5 in ENE 3.5 mph 3.5 mph 88 % 0 in
14:14 57.6 °F 54 °F 29.5 in ENE 3.5 mph 3.5 mph 88 % 0 in
14:19 57.6 °F 54 °F 29.5 in ENE 3.5 mph 3.5 mph 88 % 0 in
14:24 57.6 °F 54 °F 29.5 in ENE 3.5 mph 3.5 mph 88 % 0 in
14:29 57.6 °F 54 °F 29.5 in ENE 3.5 mph 3.5 mph 88 % 0 in
14:34 57.6 °F 54 °F 29.5 in ENE 3.5 mph 3.5 mph 88 % 0 in
14:39 57.6 °F 54 °F 29.5 in ENE 3.5 mph 3.5 mph 88 % 0 in
14:44 57.6 °F 54 °F 29.5 in ENE 3.5 mph 3.5 mph 88 % 0 in
14:49 57.6 °F 54 °F 29.5 in ENE 3.5 mph 3.5 mph 88 % 0 in
14:54 57.6 °F 54 °F 29.5 in ENE 3.5 mph 3.5 mph 88 % 0 in
14:59 57.6 °F 54 °F 29.5 in ENE 3.5 mph 3.5 mph 88 % 0 in
15:04 57.6 °F 54 °F 29.5 in ENE 3.5 mph 3.5 mph 88 % 0 in
15:09 57.6 °F 54 °F 29.5 in ENE 3.5 mph 3.5 mph 88 % 0 in
15:14 57.6 °F 54 °F 29.5 in ENE 3.5 mph 3.5 mph 88 % 0 in
15:19 57.6 °F 54 °F 29.5 in ENE 3.5 mph 3.5 mph 88 % 0 in
15:24 57.6 °F 54 °F 29.5 in ENE 3.5 mph 3.5 mph 88 % 0 in
15:29 57.6 °F 54 °F 29.5 in ENE 3.5 mph 3.5 mph 88 % 0 in
15:34 57.6 °F 54 °F 29.5 in ENE 3.5 mph 3.5 mph 88 % 0 in
15:39 57.6 °F 54 °F 29.5 in ENE 3.5 mph 3.5 mph 88 % 0 in
15:44 57.6 °F 54 °F 29.5 in ENE 3.5 mph 3.5 mph 88 % 0 in
15:49 57.6 °F 54 °F 29.5 in ENE 3.5 mph 3.5 mph 88 % 0 in
15:54 57.6 °F 54 °F 29.5 in ENE 3.5 mph 3.5 mph 88 % 0 in
15:59 57.6 °F 54 °F 29.5 in ENE 3.5 mph 3.5 mph 88 % 0 in
16:04 57.6 °F 54 °F 29.5 in ENE 3.5 mph 3.5 mph 88 % 0 in
16:09 57.6 °F 54 °F 29.5 in ENE 3.5 mph 3.5 mph 88 % 0 in
16:14 57.6 °F 54 °F 29.5 in ENE 3.5 mph 3.5 mph 88 % 0 in
16:20 58.6 °F 53.4 °F 29.6 in NE 3.5 mph 3.5 mph 83 % 0 in
16:25 59 °F 54.1 °F 29.6 in ESE 3.5 mph 3.5 mph 84 % 0 in
16:30 59 °F 54.1 °F 29.6 in NNE 2.3 mph 2.3 mph 84 % 0.34 in
16:35 59.2 °F 54.3 °F 29.6 in ESE 2.3 mph 2.3 mph 84 % 0.34 in
16:40 60.3 °F 55.8 °F 29.6 in South 1.6 mph   85 % 0.34 in
16:45 61.2 °F 56.3 °F 29.6 in South 3.5 mph 3.5 mph 84 % 0.34 in
16:50 61.5 °F 56.7 °F 29.6 in WSW 2.3 mph 2.4 mph 84 % 0.34 in
16:55 61.9 °F 56.7 °F 29.6 in WSW 1.2 mph 1.2 mph 83 % 0.34 in
17:00 62.2 °F 57.4 °F 29.6 in Calm     84 % 0.34 in
17:05 62.2 °F 57.4 °F 29.6 in SSE 1.2 mph   84 % 0.34 in
17:10 62.4 °F 57.2 °F 29.6 in SW 2.3 mph 2.3 mph 83 % 0.34 in
17:15 62.6 °F 57.7 °F 29.6 in South 2.3 mph 2.3 mph 84 % 0.34 in
17:20 62.8 °F 57.9 °F 29.6 in SSW 1.2 mph   84 % 0.34 in
17:25 63 °F 57.9 °F 29.6 in SW 2.4 mph 2.4 mph 84 % 0.34 in
17:30 63.1 °F 57.9 °F 29.6 in SW 3.5 mph 3.5 mph 83 % 0 in
17:35 64.2 °F 59.4 °F 29.6 in SW 2.3 mph 2.3 mph 84 % 0 in
17:40 64.9 °F 59.4 °F 29.6 in SW 5.8 mph 5.8 mph 82 % 0 in
17:45 65.5 °F 60.3 °F 29.6 in West 2.3 mph 2.3 mph 83 % 0 in
17:50 65.8 °F 59.7 °F 29.6 in South 4.6 mph 4.6 mph 81 % 0 in
17:55 66.6 °F 60.3 °F 29.6 in SW 3.5 mph 3.5 mph 80 % 0 in
18:00 66.7 °F 60.1 °F 29.6 in WNW 3.1 mph 3.1 mph 79 % 0 in
18:05 66.9 °F 59.7 °F 29.6 in SSE 2.3 mph 2.3 mph 78 % 0 in
18:10 66.9 °F 59.5 °F 29.6 in SE 1.2 mph   77 % 0 in
18:15 67.5 °F 60.1 °F 29.6 in West 2.3 mph 2.3 mph 77 % 0 in
18:20 67.3 °F 59.5 °F 29.6 in WNW 2.3 mph 2.3 mph 76 % 0 in
18:25 67.5 °F 59.4 °F 29.6 in NNW 1.2 mph   75 % 0 in
18:30 68 °F 59.4 °F 29.6 in West 1.6 mph   74 % 0 in
18:35 68.2 °F 58.8 °F 29.6 in West 1.4 mph 1.4 mph 72 % 0 in
18:40 68.9 °F 59.5 °F 29.5 in WSW 2.4 mph   72 % 0 in
18:45 68.7 °F 58.8 °F 29.5 in NW 1.2 mph 1.2 mph 71 % 0 in
18:50 68.4 °F 58.3 °F 29.5 in NW 1.6 mph   70 % 0 in
18:55 68.2 °F 57.9 °F 29.6 in NNE 2.4 mph 2.4 mph 70 % 0 in
19:00 67.6 °F 57.9 °F 29.6 in NE 3.5 mph 3.5 mph 71 % 0 in
19:05 67.3 °F 57.6 °F 29.6 in NNE 2.3 mph 2.3 mph 71 % 0 in
19:10 67.1 °F 57.4 °F 29.6 in NE 2.3 mph 2.3 mph 71 % 0 in
19:15 67.1 °F 57 °F 29.6 in NE 1.2 mph 1.2 mph 70 % 0 in
19:20 67.5 °F 57.7 °F 29.6 in NW 1.2 mph   71 % 0 in
19:25 67.5 °F 57.4 °F 29.5 in ENE 1.2 mph 1.2 mph 70 % 0 in
19:30 67.3 °F 56.8 °F 29.5 in ESE 3.3 mph   69 % 0 in
19:31 67.3 °F 56.8 °F 29.5 in ESE 3.5 mph 3.5 mph 69 % 0 in
19:35 59 °F 53.4 °F 29.6 in NE 2 mph 3 mph 82 % 0 in
19:36 67.1 °F 57 °F 29.5 in NNE 2.3 mph 2.3 mph 70 % 0 in
19:41 67.1 °F 56.7 °F 29.6 in NNE 1.2 mph 1.2 mph 69 % 0 in
19:45 59 °F 53.8 °F 29.6 in NNE 1 mph 2 mph 83 % 0 in
19:46 67.3 °F 57.2 °F 29.6 in West 1.2 mph 1.2 mph 70 % 0 in
19:51 67.3 °F 56.8 °F 29.6 in ESE 3.5 mph 3.5 mph 69 % 0 in
19:55 59 °F 54.1 °F 29.6 in Calm   1 mph 84 % 0 in
19:56 66.9 °F 56.8 °F 29.6 in East 3.5 mph 3.5 mph 70 % 0 in
20:01 66.7 °F 56.7 °F 29.6 in SE 2.3 mph 2.3 mph 70 % 0 in
20:05 58.3 °F 53.1 °F 29.6 in WNW 1 mph 2 mph 83 % 0 in
20:06 66.7 °F 57 °F 29.6 in SW 2.4 mph   71 % 0 in
20:11 66.7 °F 57.4 °F 29.6 in SW 5.8 mph 5.8 mph 72 % 0 in
20:15 58.5 °F 53.6 °F 29.6 in WSW 1 mph 2 mph 84 % 0 in
20:16 66.6 °F 57.4 °F 29.6 in South 2.3 mph 2.3 mph 72 % 0 in
20:21 66.4 °F 57 °F 29.6 in SW 4.9 mph 4.9 mph 72 % 0 in
20:25 58.5 °F 53.6 °F 29.6 in WSW 1 mph 2 mph 84 % 0 in
20:26 66.2 °F 56.8 °F 29.6 in SW 3.5 mph 3.5 mph 72 % 0 in
20:31 65.8 °F 57.4 °F 29.6 in SW 3.3 mph 3.3 mph 74 % 0 in
20:35 57.4 °F 52.5 °F 29.6 in WSW 2 mph 3 mph 84 % 0 in
20:36 65.5 °F 57 °F 29.6 in SSW 2.3 mph 2.3 mph 74 % 0 in
20:41 64.9 °F 56.5 °F 29.6 in WSW 2.6 mph 2.6 mph 74 % 0 in
20:45 57.2 °F 52.3 °F 29.6 in SW 2 mph 3 mph 84 % 0 in
20:46 64.8 °F 56.7 °F 29.6 in Calm     75 % 0 in
20:51 64.4 °F 56.3 °F 29.6 in West 1.2 mph 1.2 mph 75 % 0 in
20:55 57 °F 52.5 °F 29.6 in SW 2 mph 3 mph 85 % 0 in
20:56 64 °F 55.9 °F 29.6 in WNW 1.4 mph 1.4 mph 75 % 0 in
21:01 63.9 °F 55.8 °F 29.6 in West 2.3 mph 2.3 mph 75 % 0 in
21:05 57.4 °F 53.2 °F 29.6 in SW 1 mph 2 mph 86 % 0 in
21:06 63.7 °F 55.6 °F 29.6 in West 2.3 mph 2.3 mph 75 % 0 in
21:11 63.7 °F 55.6 °F 29.6 in WSW 2.4 mph 2.4 mph 75 % 0 in
21:15 57.4 °F 53.2 °F 29.6 in WSW 1 mph 2 mph 86 % 0 in
21:16 63.5 °F 55.4 °F 29.6 in West 3.5 mph 3.5 mph 75 % 0 in
21:21 63.3 °F 55.6 °F 29.6 in West 3.5 mph 3.5 mph 76 % 0 in
21:25 57 °F 53.2 °F 29.6 in Calm   2 mph 87 % 0 in
21:26 63.1 °F 55.4 °F 29.6 in WSW 2.6 mph 2.6 mph 76 % 0 in
21:31 62.8 °F 55 °F 29.6 in WSW 2.3 mph 2.3 mph 76 % 0 in
21:35 56.8 °F 53.1 °F 29.6 in ENE 1 mph 2 mph 87 % 0 in
21:36 62.4 °F 55.6 °F 29.6 in WSW 3.5 mph 3.5 mph 78 % 0 in
21:41 62.2 °F 55.2 °F 29.6 in West 3.5 mph 3.5 mph 78 % 0 in
21:45 56.5 °F 52.3 °F 29.6 in SW 2 mph 2 mph 86 % 0 in
21:46 62.1 °F 55 °F 29.6 in SW 2.3 mph 2.3 mph 78 % 0 in
21:51 62.1 °F 55.6 °F 29.6 in Calm     79 % 0 in
21:55 56.3 °F 52.2 °F 29.6 in SW 2 mph 2 mph 86 % 0 in
21:56 61.9 °F 55.2 °F 29.6 in West 1.2 mph   79 % 0 in
22:01 61.7 °F 55 °F 29.6 in WNW 2.3 mph 2.3 mph 79 % 0 in
22:05 56.1 °F 52 °F 29.6 in WSW 1 mph 3 mph 86 % 0 in
22:06 61.7 °F 55 °F 29.6 in West 2.3 mph 2.3 mph 79 % 0 in
22:11 61.7 °F 55 °F 29.6 in West 2.3 mph 2.3 mph 79 % 0 in
22:15 56.3 °F 52.5 °F 29.6 in WSW 1 mph 2 mph 87 % 0 in
22:16 61.7 °F 55 °F 29.6 in West 1.2 mph   79 % 0 in
22:21 61.5 °F 54.9 °F 29.6 in NW 1.2 mph   79 % 0 in
22:25 56.5 °F 52.3 °F 29.6 in WSW 2 mph 2 mph 86 % 0 in
22:26 61.7 °F 55 °F 29.6 in Calm     79 % 0 in
22:31 61.5 °F 55.2 °F 29.6 in Calm     80 % 0 in
22:35 56.3 °F 52.2 °F 29.6 in WSW 1 mph 2 mph 86 % 0 in
22:36 61.5 °F 55.2 °F 29.6 in NW 1.2 mph   80 % 0 in
22:41 61.3 °F 55 °F 29.6 in Calm     80 % 0 in
22:45 55.9 °F 51.8 °F 29.6 in West 2 mph 2 mph 86 % 0 in
22:46 61.3 °F 54.9 °F 29.6 in WNW 2.3 mph 2.3 mph 79 % 0 in
22:51 61.3 °F 55 °F 29.6 in West 1.2 mph   80 % 0 in
22:55 55.9 °F 51.8 °F 29.6 in WSW 1 mph 2 mph 86 % 0 in
22:56 61.2 °F 54.9 °F 29.6 in WNW 1.2 mph   80 % 0 in
23:01 61.2 °F 54.9 °F 29.6 in WNW 1.2 mph 1.2 mph 80 % 0 in
23:05 55.8 °F 52 °F 29.6 in WSW 1 mph 1 mph 87 % 0 in
23:06 61.2 °F 55.2 °F 29.6 in WNW 2.3 mph 2.3 mph 81 % 0 in
23:11 61.2 °F 55.2 °F 29.6 in West 3.5 mph 3.5 mph 81 % 0 in
23:15 55 °F 50.5 °F 29.6 in SW 2 mph 3 mph 85 % 0 in
23:16 61.2 °F 55.2 °F 29.6 in West 2.3 mph 2.3 mph 81 % 0 in
23:21 61.2 °F 55.2 °F 29.6 in West 2.4 mph 2.4 mph 81 % 0 in
23:25 54.9 °F 50.4 °F 29.6 in Calm   2 mph 85 % 0 in
23:26 61.3 °F 55.6 °F 29.6 in West 2.3 mph 2.3 mph 81 % 0 in
23:31 61.2 °F 55.2 °F 29.6 in West 2.9 mph 2.9 mph 81 % 0 in
23:35 54.7 °F 50.4 °F 29.6 in West 1 mph 2 mph 85 % 0 in
23:36 61.3 °F 55.6 °F 29.6 in WSW 4.6 mph 4.6 mph 81 % 0 in
23:41 61.2 °F 55.2 °F 29.6 in WSW 2.6 mph 2.6 mph 81 % 0 in
23:45 54.1 °F 49.6 °F 29.6 in WSW 2 mph 3 mph 85 % 0 in
23:46 61 °F 55 °F 29.6 in WSW 2.4 mph 2.4 mph 81 % 0 in
23:51 60.6 °F 55 °F 29.6 in SW 2.3 mph 2.3 mph 82 % 0 in
23:55 54.1 °F 49.6 °F 29.6 in WSW 2 mph 2 mph 85 % 0 in
23:56 60.4 °F 54.7 °F 29.6 in WSW 3.5 mph 3.5 mph 81 % 0 in
Meteo Sesrovires
Elogis d' Weather Underground - 3.75 mb

Guio original per  Jim McMurry - jmcmurry@mwt.net Adaptat per a la plantilla per  Wim van der Kuil - Leuven-Template.eu

Trobareu la nostra informacio del temps tambe a:

Weather Underground

AWEKAS